createdAt,value
2019-03-05T00:00:01.970Z,57.56
2019-03-05T00:01:19.356Z,57.60
2019-03-05T00:02:22.797Z,57.60
2019-03-05T00:03:26.336Z,57.62
2019-03-05T00:04:29.860Z,57.66
2019-03-05T00:05:33.390Z,57.73
2019-03-05T00:06:36.853Z,57.78
2019-03-05T00:07:40.290Z,57.80
2019-03-05T00:08:43.763Z,57.82
2019-03-05T00:09:47.228Z,57.85
2019-03-05T00:10:50.668Z,57.93
2019-03-05T00:11:54.139Z,57.96
2019-03-05T00:12:57.572Z,57.96
2019-03-05T00:14:01.035Z,57.97
2019-03-05T00:15:06.062Z,57.97
2019-03-05T00:16:09.496Z,57.99
2019-03-05T00:17:12.963Z,58.00
2019-03-05T00:18:16.469Z,58.04
2019-03-05T00:19:19.908Z,58.04
2019-03-05T00:20:23.394Z,58.09
2019-03-05T00:21:26.841Z,58.11
2019-03-05T00:22:30.370Z,58.11
2019-03-05T00:23:50.231Z,58.14
2019-03-05T00:25:02.081Z,58.20
2019-03-05T00:26:05.565Z,58.18
2019-03-05T00:27:09.073Z,58.16
2019-03-05T00:28:30.404Z,58.20
2019-03-05T00:29:39.805Z,58.20
2019-03-05T00:30:46.441Z,58.25
2019-03-05T00:31:50.246Z,58.26
2019-03-05T00:33:02.467Z,58.34
2019-03-05T00:34:08.954Z,58.40
2019-03-05T00:35:36.287Z,58.42
2019-03-05T00:36:43.105Z,58.41
2019-03-05T00:37:49.590Z,58.47
2019-03-05T00:39:12.401Z,58.48
2019-03-05T00:40:21.520Z,58.51
2019-03-05T00:41:33.777Z,58.53
2019-03-05T00:43:05.902Z,58.56
2019-03-05T00:44:29.937Z,58.55
2019-03-05T00:45:52.801Z,58.63
2019-03-05T00:47:08.123Z,58.63
2019-03-05T00:48:41.305Z,58.69
2019-03-05T00:49:59.351Z,58.72
2019-03-05T00:51:11.693Z,58.70
2019-03-05T00:52:30.129Z,58.73
2019-03-05T00:53:36.638Z,58.77
2019-03-05T00:54:45.946Z,58.79
2019-03-05T00:56:01.469Z,58.85
2019-03-05T00:57:16.640Z,58.90
2019-03-05T00:58:31.904Z,58.96
2019-03-05T00:59:38.421Z,58.97
2019-03-05T01:00:50.681Z,59.01
2019-03-05T01:02:15.285Z,59.02
2019-03-05T01:03:27.623Z,59.04
2019-03-05T01:04:40.180Z,59.11
2019-03-05T01:06:14.982Z,59.14
2019-03-05T01:07:18.737Z,59.16
2019-03-05T01:08:22.400Z,59.22
2019-03-05T01:09:26.143Z,59.27
2019-03-05T01:10:29.666Z,59.29
2019-03-05T01:11:33.118Z,59.35
2019-03-05T01:12:36.709Z,59.36
2019-03-05T01:13:40.501Z,59.24
2019-03-05T01:14:44.184Z,59.25
2019-03-05T01:15:47.834Z,59.29
2019-03-05T01:16:51.450Z,59.34
2019-03-05T01:17:54.978Z,59.37
2019-03-05T01:18:58.425Z,59.37
2019-03-05T01:20:01.903Z,59.44
2019-03-05T01:21:05.425Z,59.45
2019-03-05T01:22:08.879Z,59.49
2019-03-05T01:23:12.336Z,59.50
2019-03-05T01:24:15.928Z,59.52
2019-03-05T01:25:27.969Z,59.54
2019-03-05T01:26:31.571Z,59.51
2019-03-05T01:27:35.016Z,59.44
2019-03-05T01:28:38.471Z,59.49
2019-03-05T01:29:41.921Z,59.51
2019-03-05T01:31:03.354Z,59.60
2019-03-05T01:32:11.458Z,59.66
2019-03-05T01:33:16.713Z,59.65
2019-03-05T01:34:24.369Z,59.62
2019-03-05T01:35:32.343Z,59.62
2019-03-05T01:36:43.147Z,59.61
2019-03-05T01:37:46.604Z,59.55
2019-03-05T01:38:57.714Z,59.60
2019-03-05T01:40:05.513Z,59.62
2019-03-05T01:41:09.358Z,59.64
2019-03-05T01:42:12.807Z,59.63
2019-03-05T01:43:16.257Z,59.62
2019-03-05T01:44:19.714Z,59.68
2019-03-05T01:45:23.161Z,59.67
2019-03-05T01:46:26.640Z,59.68
2019-03-05T01:47:30.094Z,59.63
2019-03-05T01:48:33.539Z,59.69
2019-03-05T01:49:36.993Z,59.73
2019-03-05T01:50:40.513Z,59.76
2019-03-05T01:51:44.084Z,59.75
2019-03-05T01:52:47.532Z,59.73
2019-03-05T01:53:50.980Z,59.75
2019-03-05T01:54:54.443Z,59.75
2019-03-05T01:55:57.898Z,59.73
2019-03-05T01:57:01.369Z,59.69
2019-03-05T01:58:04.892Z,59.68
2019-03-05T01:59:08.484Z,59.69
2019-03-05T02:00:12.654Z,59.70
2019-03-05T02:01:16.097Z,59.72
2019-03-05T02:02:19.806Z,59.65
2019-03-05T02:03:23.403Z,59.54
2019-03-05T02:04:26.855Z,59.54
2019-03-05T02:05:30.367Z,59.55
2019-03-05T02:06:33.888Z,59.70
2019-03-05T02:07:37.494Z,59.72
2019-03-05T02:08:41.084Z,59.72
2019-03-05T02:09:44.607Z,59.73
2019-03-05T02:10:48.180Z,59.69
2019-03-05T02:11:51.657Z,59.66
2019-03-05T02:12:55.141Z,59.69
2019-03-05T02:13:58.651Z,59.70
2019-03-05T02:15:02.186Z,59.70
2019-03-05T02:16:05.625Z,59.74
2019-03-05T02:17:09.135Z,59.78
2019-03-05T02:18:18.276Z,59.84
2019-03-05T02:19:39.341Z,59.84
2019-03-05T02:20:42.869Z,59.82
2019-03-05T02:21:46.334Z,59.79
2019-03-05T02:22:58.845Z,59.76
2019-03-05T02:24:13.898Z,59.75
2019-03-05T02:25:20.610Z,59.76
2019-03-05T02:26:46.310Z,59.80
2019-03-05T02:27:53.088Z,59.82
2019-03-05T02:29:08.135Z,59.86
2019-03-05T02:30:33.276Z,59.90
2019-03-05T02:32:06.536Z,59.93
2019-03-05T02:33:40.987Z,59.95
2019-03-05T02:34:56.388Z,59.97
2019-03-05T02:36:33.757Z,60.00
2019-03-05T02:37:43.020Z,60.02
2019-03-05T02:39:14.875Z,60.03
2019-03-05T02:40:21.373Z,60.07
2019-03-05T02:41:30.799Z,60.07
2019-03-05T02:42:40.049Z,60.10
2019-03-05T02:43:52.264Z,60.11
2019-03-05T02:45:13.962Z,60.12
2019-03-05T02:46:40.773Z,60.11
2019-03-05T02:47:58.978Z,60.11
2019-03-05T02:49:11.322Z,60.13
2019-03-05T02:50:41.553Z,60.16
2019-03-05T02:52:02.216Z,60.12
2019-03-05T02:53:11.676Z,60.08
2019-03-05T02:54:32.717Z,59.99
2019-03-05T02:55:39.253Z,59.96
2019-03-05T02:56:45.861Z,59.98
2019-03-05T02:57:48.102Z,60.06
2019-03-05T02:58:50.417Z,60.00
2019-03-05T02:59:53.863Z,60.10
2019-03-05T03:01:07.490Z,60.19
2019-03-05T03:02:12.801Z,60.18
2019-03-05T03:03:17.880Z,60.25
2019-03-05T03:04:25.971Z,60.33
2019-03-05T03:05:36.705Z,60.32
2019-03-05T03:06:40.244Z,60.26
2019-03-05T03:07:43.711Z,60.32
2019-03-05T03:08:47.154Z,60.16
2019-03-05T03:09:53.670Z,60.06
2019-03-05T03:10:57.134Z,60.12
2019-03-05T03:12:00.598Z,60.12
2019-03-05T03:13:04.210Z,60.06
2019-03-05T03:14:07.743Z,60.16
2019-03-05T03:15:11.800Z,60.27
2019-03-05T03:16:15.337Z,60.32
2019-03-05T03:17:18.790Z,60.33
2019-03-05T03:18:22.262Z,60.35
2019-03-05T03:19:25.740Z,60.39
2019-03-05T03:20:29.180Z,60.48
2019-03-05T03:21:32.647Z,60.51
2019-03-05T03:22:36.102Z,60.54
2019-03-05T03:23:39.538Z,60.54
2019-03-05T03:24:43.010Z,60.55
2019-03-05T03:25:46.475Z,60.55
2019-03-05T03:26:49.911Z,60.58
2019-03-05T03:27:53.509Z,60.55
2019-03-05T03:28:56.977Z,60.50
2019-03-05T03:30:00.712Z,60.51
2019-03-05T03:31:04.228Z,60.49
2019-03-05T03:32:07.708Z,60.46
2019-03-05T03:33:11.178Z,60.43
2019-03-05T03:34:14.647Z,60.43
2019-03-05T03:35:18.125Z,60.43
2019-03-05T03:36:21.584Z,60.41
2019-03-05T03:37:25.141Z,60.38
2019-03-05T03:38:28.632Z,60.37
2019-03-05T03:39:32.091Z,60.37
2019-03-05T03:40:35.558Z,60.41
2019-03-05T03:41:38.994Z,60.44
2019-03-05T03:42:42.603Z,60.43
2019-03-05T03:43:46.052Z,60.36
2019-03-05T03:44:49.538Z,60.36
2019-03-05T03:45:53.003Z,60.34
2019-03-05T03:46:56.439Z,60.45
2019-03-05T03:48:00.046Z,60.47
2019-03-05T03:49:03.538Z,60.47
2019-03-05T03:50:07.312Z,60.49
2019-03-05T03:51:10.780Z,60.50
2019-03-05T03:52:14.215Z,60.51
2019-03-05T03:53:17.658Z,60.53
2019-03-05T03:54:21.149Z,60.51
2019-03-05T03:55:24.649Z,60.38
2019-03-05T03:56:28.194Z,60.30
2019-03-05T03:57:31.646Z,60.14
2019-03-05T03:58:35.152Z,60.02
2019-03-05T03:59:38.777Z,59.92
2019-03-05T04:00:42.229Z,59.56
2019-03-05T04:01:45.727Z,59.38
2019-03-05T04:02:49.543Z,59.23
2019-03-05T04:03:53.059Z,59.15
2019-03-05T04:04:56.543Z,59.13
2019-03-05T04:06:00.079Z,59.09
2019-03-05T04:07:03.600Z,59.14
2019-03-05T04:08:10.312Z,59.13
2019-03-05T04:09:12.299Z,59.18
2019-03-05T04:10:16.500Z,59.17
2019-03-05T04:11:19.984Z,59.10
2019-03-05T04:12:23.407Z,59.01
2019-03-05T04:13:26.875Z,58.85
2019-03-05T04:14:30.341Z,58.74
2019-03-05T04:15:33.865Z,58.56
2019-03-05T04:16:37.401Z,58.49
2019-03-05T04:17:40.910Z,58.18
2019-03-05T04:18:44.361Z,57.93
2019-03-05T04:19:47.826Z,57.73
2019-03-05T04:20:52.553Z,57.52
2019-03-05T04:21:56.154Z,57.39
2019-03-05T04:22:59.613Z,56.99
2019-03-05T04:24:03.055Z,56.85
2019-03-05T04:25:08.156Z,56.63
2019-03-05T04:26:11.620Z,56.56
2019-03-05T04:27:15.097Z,56.34
2019-03-05T04:28:18.569Z,56.10
2019-03-05T04:29:22.017Z,55.89
2019-03-05T04:30:25.467Z,55.72
2019-03-05T04:31:28.954Z,55.54
2019-03-05T04:32:32.395Z,55.33
2019-03-05T04:33:35.849Z,55.14
2019-03-05T04:34:39.297Z,55.17
2019-03-05T04:35:42.751Z,55.03
2019-03-05T04:36:46.220Z,54.99
2019-03-05T04:37:49.693Z,55.07
2019-03-05T04:38:53.144Z,54.90
2019-03-05T04:39:56.593Z,54.89
2019-03-05T04:41:00.030Z,54.98
2019-03-05T04:42:03.508Z,55.00
2019-03-05T04:43:06.955Z,54.93
2019-03-05T04:44:10.413Z,54.86
2019-03-05T04:45:29.943Z,54.85
2019-03-05T04:46:34.052Z,54.91
2019-03-05T04:47:37.542Z,54.92
2019-03-05T04:48:42.380Z,54.87
2019-03-05T04:49:49.998Z,54.81
2019-03-05T04:50:55.085Z,54.77
2019-03-05T04:52:00.175Z,54.71
2019-03-05T04:53:03.782Z,54.73
2019-03-05T04:54:07.236Z,54.80
2019-03-05T04:55:10.749Z,54.77
2019-03-05T04:56:14.202Z,55.06
2019-03-05T04:57:17.653Z,54.90
2019-03-05T04:58:21.142Z,54.92
2019-03-05T04:59:24.584Z,54.92
2019-03-05T05:00:28.036Z,54.85
2019-03-05T05:01:31.490Z,54.83
2019-03-05T05:02:34.950Z,54.83
2019-03-05T05:03:38.414Z,54.70
2019-03-05T05:04:41.937Z,54.80
2019-03-05T05:05:45.392Z,54.89
2019-03-05T05:06:48.907Z,54.83
2019-03-05T05:07:52.510Z,55.08
2019-03-05T05:08:55.977Z,55.06
2019-03-05T05:09:59.436Z,54.95
2019-03-05T05:11:02.900Z,54.93
2019-03-05T05:12:06.345Z,54.89
2019-03-05T05:13:09.797Z,54.99
2019-03-05T05:14:13.342Z,54.99
2019-03-05T05:15:25.909Z,55.00
2019-03-05T05:16:29.365Z,55.14
2019-03-05T05:17:32.813Z,55.07
2019-03-05T05:18:36.270Z,55.12
2019-03-05T05:19:39.745Z,55.23
2019-03-05T05:20:43.194Z,55.25
2019-03-05T05:21:46.718Z,55.27
2019-03-05T05:22:50.175Z,55.39
2019-03-05T05:23:53.625Z,55.43
2019-03-05T05:24:57.107Z,55.52
2019-03-05T05:26:00.557Z,55.62
2019-03-05T05:27:04.005Z,55.66
2019-03-05T05:28:07.465Z,55.54
2019-03-05T05:29:10.916Z,55.58
2019-03-05T05:30:31.645Z,55.56
2019-03-05T05:31:35.094Z,55.59
2019-03-05T05:32:38.546Z,55.56
2019-03-05T05:33:41.997Z,55.55
2019-03-05T05:34:45.447Z,55.70
2019-03-05T05:35:48.918Z,55.65
2019-03-05T05:36:52.375Z,55.61
2019-03-05T05:37:55.825Z,55.77
2019-03-05T05:38:59.282Z,55.74
2019-03-05T05:40:26.732Z,55.71
2019-03-05T05:41:30.201Z,55.81
2019-03-05T05:42:33.661Z,55.89
2019-03-05T05:43:37.102Z,55.92
2019-03-05T05:44:40.553Z,55.96
2019-03-05T05:45:51.923Z,55.96
2019-03-05T05:46:55.373Z,55.99
2019-03-05T05:47:58.832Z,56.05
2019-03-05T05:49:02.278Z,56.05
2019-03-05T05:50:06.271Z,55.98
2019-03-05T05:51:09.748Z,55.96
2019-03-05T05:52:13.200Z,55.92
2019-03-05T05:53:16.798Z,55.88
2019-03-05T05:54:20.252Z,55.88
2019-03-05T05:55:23.855Z,55.90
2019-03-05T05:56:27.325Z,55.93
2019-03-05T05:57:30.794Z,55.96
2019-03-05T05:58:34.247Z,55.96
2019-03-05T05:59:37.704Z,55.97
2019-03-05T06:00:42.932Z,56.03
2019-03-05T06:01:46.405Z,56.04
2019-03-05T06:02:49.864Z,56.13
2019-03-05T06:03:53.316Z,56.18
2019-03-05T06:04:56.773Z,56.25
2019-03-05T06:06:00.225Z,56.22
2019-03-05T06:07:03.703Z,56.26
2019-03-05T06:08:07.227Z,56.29
2019-03-05T06:09:10.911Z,56.26
2019-03-05T06:10:14.834Z,56.23
2019-03-05T06:11:18.359Z,56.10
2019-03-05T06:12:21.826Z,56.06
2019-03-05T06:13:25.283Z,56.04
2019-03-05T06:14:28.738Z,56.10
2019-03-05T06:15:32.185Z,56.12
2019-03-05T06:16:35.640Z,56.16
2019-03-05T06:17:39.180Z,56.13
2019-03-05T06:18:42.629Z,56.20
2019-03-05T06:19:46.086Z,56.24
2019-03-05T06:20:49.607Z,56.32
2019-03-05T06:21:53.066Z,56.33
2019-03-05T06:22:56.538Z,56.39
2019-03-05T06:24:00.001Z,56.46
2019-03-05T06:25:04.128Z,56.47
2019-03-05T06:26:08.701Z,56.44
2019-03-05T06:27:12.303Z,56.45
2019-03-05T06:28:15.854Z,56.38
2019-03-05T06:29:19.308Z,56.41
2019-03-05T06:30:24.605Z,56.45
2019-03-05T06:31:28.074Z,56.41
2019-03-05T06:32:31.526Z,56.48
2019-03-05T06:33:35.005Z,56.45
2019-03-05T06:34:38.453Z,56.51
2019-03-05T06:35:41.979Z,56.51
2019-03-05T06:36:53.335Z,56.53
2019-03-05T06:37:56.798Z,56.58
2019-03-05T06:39:00.271Z,56.59
2019-03-05T06:40:05.466Z,56.67
2019-03-05T06:41:08.917Z,56.71
2019-03-05T06:42:12.370Z,56.74
2019-03-05T06:43:15.820Z,56.72
2019-03-05T06:44:19.293Z,56.72
2019-03-05T06:45:22.747Z,56.78
2019-03-05T06:46:26.205Z,56.73
2019-03-05T06:47:29.649Z,56.68
2019-03-05T06:48:33.101Z,56.65
2019-03-05T06:49:36.578Z,56.63
2019-03-05T06:50:40.043Z,56.62
2019-03-05T06:51:43.481Z,56.67
2019-03-05T06:52:48.697Z,56.61
2019-03-05T06:53:52.164Z,56.67
2019-03-05T06:54:55.625Z,56.63
2019-03-05T06:55:59.158Z,56.69
2019-03-05T06:57:02.634Z,56.75
2019-03-05T06:58:06.213Z,56.77
2019-03-05T06:59:09.921Z,56.81
2019-03-05T07:00:18.309Z,56.84
2019-03-05T07:01:23.269Z,56.92
2019-03-05T07:02:26.738Z,56.88
2019-03-05T07:03:30.180Z,56.92
2019-03-05T07:04:33.658Z,56.91
2019-03-05T07:06:13.165Z,56.94
2019-03-05T07:07:16.604Z,56.75
2019-03-05T07:08:20.074Z,56.45
2019-03-05T07:09:53.408Z,56.22
2019-03-05T07:11:02.964Z,55.78
2019-03-05T07:12:21.313Z,55.63
2019-03-05T07:13:24.747Z,55.74
2019-03-05T07:14:59.561Z,55.20
2019-03-05T07:16:14.714Z,55.90
2019-03-05T07:17:35.997Z,58.20
2019-03-05T07:18:42.211Z,56.79
2019-03-05T07:19:57.578Z,56.17
2019-03-05T07:21:17.808Z,56.49
2019-03-05T07:22:30.093Z,57.16
2019-03-05T07:23:56.001Z,55.82
2019-03-05T07:24:59.470Z,55.82
2019-03-05T07:26:02.940Z,55.66
2019-03-05T07:27:06.492Z,55.71
2019-03-05T07:28:09.958Z,55.77
2019-03-05T07:29:13.398Z,55.40
2019-03-05T07:30:17.779Z,55.37
2019-03-05T07:31:21.276Z,55.22
2019-03-05T07:32:24.714Z,55.17
2019-03-05T07:33:28.185Z,55.15
2019-03-05T07:34:33.516Z,54.99
2019-03-05T07:35:37.095Z,54.92
2019-03-05T07:36:40.650Z,54.95
2019-03-05T07:37:44.092Z,54.91
2019-03-05T07:38:47.528Z,54.87
2019-03-05T07:39:50.994Z,54.84
2019-03-05T07:40:54.431Z,54.81
2019-03-05T07:41:57.919Z,54.81
2019-03-05T07:43:01.386Z,54.83
2019-03-05T07:44:04.832Z,54.85
2019-03-05T07:45:10.604Z,54.86
2019-03-05T07:46:14.039Z,54.89
2019-03-05T07:47:17.497Z,54.89
2019-03-05T07:48:20.969Z,54.92
2019-03-05T07:49:24.409Z,54.98
2019-03-05T07:50:28.018Z,54.98
2019-03-05T07:51:31.482Z,55.04
2019-03-05T07:52:34.943Z,55.08
2019-03-05T07:53:38.415Z,55.10
2019-03-05T07:54:41.859Z,55.12
2019-03-05T07:55:45.300Z,55.15
2019-03-05T07:56:48.770Z,55.20
2019-03-05T07:57:52.289Z,55.22
2019-03-05T07:58:55.701Z,55.26
2019-03-05T07:59:59.171Z,55.29
2019-03-05T08:01:02.642Z,55.33
2019-03-05T08:02:06.054Z,55.36
2019-03-05T08:03:09.551Z,55.39
2019-03-05T08:04:13.027Z,55.41
2019-03-05T08:05:16.799Z,55.44
2019-03-05T08:06:20.264Z,55.48
2019-03-05T08:07:23.776Z,55.50
2019-03-05T08:09:04.732Z,55.50
2019-03-05T08:10:23.117Z,55.54
2019-03-05T08:11:26.564Z,55.57
2019-03-05T08:13:01.160Z,55.59
2019-03-05T08:14:13.531Z,55.58
2019-03-05T08:15:20.040Z,55.64
2019-03-05T08:16:24.383Z,55.64
2019-03-05T08:17:27.820Z,55.67
2019-03-05T08:18:31.252Z,55.71
2019-03-05T08:19:34.740Z,55.73
2019-03-05T08:20:38.175Z,55.74
2019-03-05T08:21:41.649Z,55.77
2019-03-05T08:22:45.179Z,55.78
2019-03-05T08:23:48.656Z,55.80
2019-03-05T08:24:52.107Z,55.82
2019-03-05T08:25:55.544Z,55.84
2019-03-05T08:26:58.985Z,55.86
2019-03-05T08:28:02.448Z,55.89
2019-03-05T08:29:05.957Z,55.91
2019-03-05T08:30:14.478Z,55.93
2019-03-05T08:31:17.676Z,55.95
2019-03-05T08:32:21.112Z,55.97
2019-03-05T08:33:24.585Z,55.97
2019-03-05T08:34:28.041Z,56.00
2019-03-05T08:35:31.481Z,56.01
2019-03-05T08:36:34.949Z,56.03
2019-03-05T08:37:38.420Z,56.05
2019-03-05T08:38:41.946Z,56.05
2019-03-05T08:39:45.568Z,56.06
2019-03-05T08:40:49.076Z,56.07
2019-03-05T08:41:52.615Z,56.07
2019-03-05T08:42:56.047Z,56.09
2019-03-05T08:43:59.629Z,56.09
2019-03-05T08:45:03.261Z,56.10
2019-03-05T08:46:06.935Z,56.10
2019-03-05T08:47:10.401Z,56.11
2019-03-05T08:48:13.865Z,56.11
2019-03-05T08:49:18.037Z,56.13
2019-03-05T08:50:21.577Z,56.13
2019-03-05T08:51:25.021Z,56.14
2019-03-05T08:52:28.457Z,56.14
2019-03-05T08:53:32.005Z,56.16
2019-03-05T08:54:35.444Z,56.18
2019-03-05T08:55:38.931Z,56.16
2019-03-05T08:56:42.410Z,56.16
2019-03-05T08:57:45.849Z,56.18
2019-03-05T08:58:49.315Z,56.17
2019-03-05T08:59:52.752Z,56.19
2019-03-05T09:00:56.209Z,56.21
2019-03-05T09:01:59.678Z,56.21
2019-03-05T09:03:03.116Z,56.21
2019-03-05T09:04:06.583Z,56.22
2019-03-05T09:05:11.987Z,56.22
2019-03-05T09:06:15.442Z,56.24
2019-03-05T09:07:19.045Z,56.23
2019-03-05T09:08:22.620Z,56.24
2019-03-05T09:09:26.127Z,56.22
2019-03-05T09:10:30.065Z,56.22
2019-03-05T09:11:33.547Z,56.22
2019-03-05T09:12:37.642Z,56.22
2019-03-05T09:13:41.166Z,56.23
2019-03-05T09:14:44.762Z,56.24
2019-03-05T09:15:48.213Z,56.24
2019-03-05T09:16:51.687Z,56.24
2019-03-05T09:17:55.302Z,56.24
2019-03-05T09:18:58.827Z,56.24
2019-03-05T09:20:02.356Z,56.27
2019-03-05T09:21:05.811Z,56.27
2019-03-05T09:22:09.287Z,56.28
2019-03-05T09:23:12.809Z,56.28
2019-03-05T09:24:16.262Z,56.26
2019-03-05T09:25:19.948Z,56.28
2019-03-05T09:26:23.405Z,56.28
2019-03-05T09:27:26.880Z,56.29
2019-03-05T09:28:30.333Z,56.28
2019-03-05T09:29:33.789Z,56.27
2019-03-05T09:30:37.317Z,56.28
2019-03-05T09:31:40.757Z,56.29
2019-03-05T09:32:44.244Z,56.29
2019-03-05T09:33:47.691Z,56.30
2019-03-05T09:34:51.138Z,56.29
2019-03-05T09:35:54.665Z,56.29
2019-03-05T09:36:58.113Z,56.29
2019-03-05T09:38:01.652Z,56.27
2019-03-05T09:39:07.449Z,56.28
2019-03-05T09:40:13.642Z,56.28
2019-03-05T09:41:17.166Z,56.28
2019-03-05T09:42:20.613Z,56.28
2019-03-05T09:43:24.222Z,56.28
2019-03-05T09:44:27.678Z,56.30
2019-03-05T09:45:31.194Z,56.31
2019-03-05T09:46:34.695Z,56.30
2019-03-05T09:47:38.221Z,56.32
2019-03-05T09:48:41.726Z,56.30
2019-03-05T09:49:45.252Z,56.30
2019-03-05T09:50:48.701Z,56.30
2019-03-05T09:51:52.158Z,56.31
2019-03-05T09:52:55.615Z,56.32
2019-03-05T09:53:59.082Z,56.33
2019-03-05T09:55:02.602Z,56.32
2019-03-05T09:56:06.196Z,56.32
2019-03-05T09:57:09.717Z,56.30
2019-03-05T09:58:13.246Z,56.32
2019-03-05T09:59:16.710Z,56.34
2019-03-05T10:00:21.668Z,56.33
2019-03-05T10:01:25.126Z,56.32
2019-03-05T10:02:28.649Z,56.35
2019-03-05T10:03:32.101Z,56.34
2019-03-05T10:04:35.578Z,56.33
2019-03-05T10:05:39.112Z,56.35
2019-03-05T10:06:42.620Z,56.37
2019-03-05T10:07:46.209Z,56.35
2019-03-05T10:08:49.733Z,56.34
2019-03-05T10:09:53.249Z,56.37
2019-03-05T10:10:56.697Z,56.36
2019-03-05T10:12:00.159Z,56.37
2019-03-05T10:13:04.131Z,56.35
2019-03-05T10:14:08.050Z,56.33
2019-03-05T10:15:14.865Z,56.35
2019-03-05T10:16:18.316Z,56.36
2019-03-05T10:17:21.807Z,56.33
2019-03-05T10:18:25.266Z,56.33
2019-03-05T10:19:28.696Z,56.33
2019-03-05T10:20:33.927Z,56.35
2019-03-05T10:21:45.927Z,56.33
2019-03-05T10:22:42.826Z,56.35
2019-03-05T10:23:46.734Z,56.35
2019-03-05T10:24:50.352Z,56.37
2019-03-05T10:25:53.953Z,56.36
2019-03-05T10:26:57.501Z,56.34
2019-03-05T10:28:01.284Z,56.33
2019-03-05T10:29:06.483Z,56.32
2019-03-05T10:30:24.711Z,56.32
2019-03-05T10:31:24.018Z,56.33
2019-03-05T10:32:27.479Z,56.34
2019-03-05T10:33:30.996Z,56.35
2019-03-05T10:34:34.576Z,56.33
2019-03-05T10:35:38.189Z,56.32
2019-03-05T10:36:41.784Z,56.31
2019-03-05T10:37:45.394Z,56.30
2019-03-05T10:38:56.815Z,56.32
2019-03-05T10:39:54.165Z,56.30
2019-03-05T10:40:59.974Z,56.29
2019-03-05T10:42:03.700Z,56.31
2019-03-05T10:43:09.178Z,56.32
2019-03-05T10:44:12.794Z,56.31
2019-03-05T10:45:18.368Z,56.31
2019-03-05T10:46:21.903Z,56.28
2019-03-05T10:47:25.401Z,56.27
2019-03-05T10:48:30.400Z,56.30
2019-03-05T10:49:34.092Z,56.32
2019-03-05T10:50:37.536Z,56.35
2019-03-05T10:51:41.046Z,56.33
2019-03-05T10:52:44.602Z,56.30
2019-03-05T10:53:48.037Z,56.28
2019-03-05T10:54:51.574Z,56.26
2019-03-05T10:55:55.039Z,56.26
2019-03-05T10:56:58.615Z,56.26
2019-03-05T10:58:02.343Z,56.25
2019-03-05T10:59:05.848Z,56.25
2019-03-05T11:00:25.254Z,56.26
2019-03-05T11:01:28.725Z,56.24
2019-03-05T11:02:32.237Z,56.24
2019-03-05T11:03:35.943Z,56.23
2019-03-05T11:04:45.747Z,56.22
2019-03-05T11:05:44.907Z,56.22
2019-03-05T11:06:48.617Z,56.21
2019-03-05T11:07:52.184Z,56.22
2019-03-05T11:08:55.648Z,56.21
2019-03-05T11:09:59.250Z,56.20
2019-03-05T11:11:13.132Z,56.21
2019-03-05T11:12:08.087Z,56.19
2019-03-05T11:13:12.988Z,56.20
2019-03-05T11:14:16.450Z,56.20
2019-03-05T11:15:25.066Z,56.21
2019-03-05T11:16:31.033Z,56.18
2019-03-05T11:17:33.915Z,56.17
2019-03-05T11:18:38.428Z,56.19
2019-03-05T11:19:41.881Z,56.20
2019-03-05T11:20:45.415Z,56.20
2019-03-05T11:21:48.877Z,56.19
2019-03-05T11:22:52.484Z,56.18
2019-03-05T11:23:55.935Z,56.17
2019-03-05T11:24:59.401Z,56.17
2019-03-05T11:26:02.907Z,56.16
2019-03-05T11:27:06.373Z,56.16
2019-03-05T11:28:09.962Z,56.17
2019-03-05T11:29:13.419Z,56.16
2019-03-05T11:30:22.285Z,56.13
2019-03-05T11:31:25.735Z,56.13
2019-03-05T11:32:29.225Z,56.14
2019-03-05T11:33:32.712Z,56.11
2019-03-05T11:34:36.240Z,56.10
2019-03-05T11:35:39.949Z,56.10
2019-03-05T11:36:43.401Z,56.09
2019-03-05T11:37:47.193Z,56.05
2019-03-05T11:38:50.718Z,56.04
2019-03-05T11:39:55.433Z,56.05
2019-03-05T11:40:59.772Z,56.05
2019-03-05T11:42:03.345Z,56.05
2019-03-05T11:43:09.409Z,56.03
2019-03-05T11:44:12.936Z,56.03
2019-03-05T11:45:31.418Z,56.03
2019-03-05T11:46:34.920Z,56.04
2019-03-05T11:47:38.374Z,56.04
2019-03-05T11:48:41.824Z,56.04
2019-03-05T11:49:45.276Z,56.04
2019-03-05T11:50:51.378Z,56.04
2019-03-05T11:51:53.984Z,56.04
2019-03-05T11:52:57.440Z,56.04
2019-03-05T11:54:00.891Z,56.05
2019-03-05T11:55:06.882Z,56.03
2019-03-05T11:56:10.354Z,56.03
2019-03-05T11:57:13.801Z,56.03
2019-03-05T11:58:17.288Z,56.00
2019-03-05T11:59:20.741Z,56.00
2019-03-05T12:00:31.040Z,56.00
2019-03-05T12:01:36.302Z,56.00
2019-03-05T12:02:39.752Z,55.97
2019-03-05T12:03:43.279Z,55.98
2019-03-05T12:04:46.729Z,55.98
2019-03-05T12:05:50.262Z,55.96
2019-03-05T12:06:53.801Z,55.94
2019-03-05T12:07:57.248Z,55.94
2019-03-05T12:09:00.801Z,55.94
2019-03-05T12:10:07.033Z,55.95
2019-03-05T12:11:10.635Z,55.93
2019-03-05T12:12:14.102Z,55.93
2019-03-05T12:13:17.634Z,55.92
2019-03-05T12:14:21.090Z,55.91
2019-03-05T12:15:26.987Z,55.90
2019-03-05T12:16:30.531Z,55.90
2019-03-05T12:17:34.050Z,55.88
2019-03-05T12:18:37.505Z,55.88
2019-03-05T12:19:40.954Z,55.88
2019-03-05T12:20:44.555Z,55.89
2019-03-05T12:21:48.091Z,55.88
2019-03-05T12:22:51.541Z,55.86
2019-03-05T12:23:55.025Z,55.86
2019-03-05T12:25:01.693Z,55.89
2019-03-05T12:26:03.829Z,55.90
2019-03-05T12:27:07.375Z,55.89
2019-03-05T12:28:11.490Z,55.89
2019-03-05T12:29:15.121Z,55.89
2019-03-05T12:30:23.677Z,55.89
2019-03-05T12:31:27.124Z,55.88
2019-03-05T12:32:30.618Z,55.85
2019-03-05T12:33:34.070Z,55.85
2019-03-05T12:34:37.523Z,55.83
2019-03-05T12:35:40.975Z,55.83
2019-03-05T12:36:44.434Z,55.81
2019-03-05T12:37:48.653Z,55.81
2019-03-05T12:38:52.101Z,55.80
2019-03-05T12:39:55.557Z,55.80
2019-03-05T12:40:59.006Z,55.81
2019-03-05T12:42:03.665Z,55.78
2019-03-05T12:43:07.280Z,55.78
2019-03-05T12:44:10.725Z,55.79
2019-03-05T12:45:16.033Z,55.80
2019-03-05T12:46:19.483Z,55.81
2019-03-05T12:47:22.937Z,55.79
2019-03-05T12:48:26.478Z,55.81
2019-03-05T12:49:29.992Z,55.82
2019-03-05T12:50:35.490Z,55.84
2019-03-05T12:51:39.111Z,55.82
2019-03-05T12:52:42.996Z,55.83
2019-03-05T12:53:46.538Z,55.84
2019-03-05T12:54:50.005Z,55.85
2019-03-05T12:55:53.458Z,55.83
2019-03-05T12:56:56.911Z,55.82
2019-03-05T12:58:00.356Z,55.82
2019-03-05T12:59:03.841Z,55.85
2019-03-05T13:00:13.981Z,55.83
2019-03-05T13:01:17.499Z,55.82
2019-03-05T13:02:20.953Z,55.81
2019-03-05T13:03:24.404Z,55.81
2019-03-05T13:04:27.968Z,55.81
2019-03-05T13:05:31.403Z,55.81
2019-03-05T13:06:34.857Z,55.77
2019-03-05T13:07:38.379Z,55.77
2019-03-05T13:08:41.830Z,55.76
2019-03-05T13:09:45.539Z,55.74
2019-03-05T13:10:49.033Z,55.74
2019-03-05T13:11:52.490Z,55.71
2019-03-05T13:12:56.016Z,55.72
2019-03-05T13:14:06.090Z,55.72
2019-03-05T13:15:06.797Z,55.68
2019-03-05T13:16:10.389Z,55.72
2019-03-05T13:17:13.910Z,55.70
2019-03-05T13:18:17.430Z,55.68
2019-03-05T13:19:20.957Z,55.70
2019-03-05T13:20:26.183Z,55.70
2019-03-05T13:21:29.733Z,55.69
2019-03-05T13:22:33.189Z,55.73
2019-03-05T13:23:36.639Z,55.71
2019-03-05T13:24:40.098Z,55.69
2019-03-05T13:25:43.568Z,55.68
2019-03-05T13:26:47.020Z,55.66
2019-03-05T13:27:50.743Z,55.65
2019-03-05T13:28:54.191Z,55.66
2019-03-05T13:29:57.640Z,55.62
2019-03-05T13:31:05.107Z,55.61
2019-03-05T13:32:06.292Z,55.60
2019-03-05T13:33:09.749Z,55.60
2019-03-05T13:34:14.106Z,55.59
2019-03-05T13:35:19.706Z,55.57
2019-03-05T13:36:23.186Z,55.53
2019-03-05T13:37:28.441Z,55.51
2019-03-05T13:38:31.825Z,55.49
2019-03-05T13:39:35.284Z,55.47
2019-03-05T13:40:40.580Z,55.47
2019-03-05T13:41:43.958Z,55.45
2019-03-05T13:42:47.481Z,55.45
2019-03-05T13:43:52.066Z,55.44
2019-03-05T13:44:57.262Z,55.42
2019-03-05T13:46:00.841Z,55.38
2019-03-05T13:47:05.767Z,55.39
2019-03-05T13:48:34.726Z,55.35
2019-03-05T13:49:41.273Z,55.36
2019-03-05T13:51:01.894Z,55.31
2019-03-05T13:52:27.970Z,55.32
2019-03-05T13:53:37.288Z,55.31
2019-03-05T13:54:55.848Z,55.31
2019-03-05T13:56:03.999Z,55.31
2019-03-05T13:57:28.373Z,55.29
2019-03-05T13:58:40.697Z,55.28
2019-03-05T13:59:47.160Z,55.29
2019-03-05T14:00:51.618Z,55.26
2019-03-05T14:01:55.196Z,55.29
2019-03-05T14:03:00.865Z,55.28
2019-03-05T14:04:10.308Z,55.29